sensor_id;sensor_type;location;lat;lon;timestamp;P1;durP1;ratioP1;P2;durP2;ratioP2
801;SDS011;383;48.766;9.270;2023-12-14T00:00:50;3.33;;;2.58;;
801;SDS011;383;48.766;9.270;2023-12-14T00:03:18;3.60;;;2.70;;
801;SDS011;383;48.766;9.270;2023-12-14T00:05:44;3.75;;;2.20;;
801;SDS011;383;48.766;9.270;2023-12-14T00:08:11;2.85;;;1.98;;
801;SDS011;383;48.766;9.270;2023-12-14T00:10:37;3.97;;;2.80;;
801;SDS011;383;48.766;9.270;2023-12-14T00:13:04;2.38;;;2.05;;
801;SDS011;383;48.766;9.270;2023-12-14T00:15:32;3.20;;;2.15;;
801;SDS011;383;48.766;9.270;2023-12-14T00:18:00;3.67;;;2.25;;
801;SDS011;383;48.766;9.270;2023-12-14T00:20:27;6.20;;;2.42;;
801;SDS011;383;48.766;9.270;2023-12-14T00:22:54;5.32;;;2.90;;
801;SDS011;383;48.766;9.270;2023-12-14T00:25:20;2.78;;;1.60;;
801;SDS011;383;48.766;9.270;2023-12-14T00:27:47;2.13;;;1.80;;
801;SDS011;383;48.766;9.270;2023-12-14T00:30:14;2.30;;;2.10;;
801;SDS011;383;48.766;9.270;2023-12-14T00:32:41;2.97;;;1.67;;
801;SDS011;383;48.766;9.270;2023-12-14T00:35:09;7.75;;;2.75;;
801;SDS011;383;48.766;9.270;2023-12-14T00:37:35;4.40;;;2.17;;
801;SDS011;383;48.766;9.270;2023-12-14T00:40:02;4.18;;;2.40;;
801;SDS011;383;48.766;9.270;2023-12-14T00:42:29;3.65;;;2.78;;
801;SDS011;383;48.766;9.270;2023-12-14T00:44:56;2.53;;;2.30;;
801;SDS011;383;48.766;9.270;2023-12-14T00:47:22;3.92;;;2.50;;
801;SDS011;383;48.766;9.270;2023-12-14T00:49:49;2.83;;;2.00;;
801;SDS011;383;48.766;9.270;2023-12-14T00:52:17;3.28;;;2.33;;
801;SDS011;383;48.766;9.270;2023-12-14T00:54:44;4.28;;;2.88;;
801;SDS011;383;48.766;9.270;2023-12-14T00:57:10;3.80;;;2.70;;
801;SDS011;383;48.766;9.270;2023-12-14T00:59:37;4.63;;;3.30;;
801;SDS011;383;48.766;9.270;2023-12-14T01:02:05;3.05;;;2.70;;
801;SDS011;383;48.766;9.270;2023-12-14T01:04:32;4.43;;;2.60;;
801;SDS011;383;48.766;9.270;2023-12-14T01:06:58;4.80;;;2.95;;
801;SDS011;383;48.766;9.270;2023-12-14T01:09:27;3.05;;;2.33;;
801;SDS011;383;48.766;9.270;2023-12-14T01:11:53;5.63;;;2.63;;
801;SDS011;383;48.766;9.270;2023-12-14T01:14:20;5.38;;;2.85;;
801;SDS011;383;48.766;9.270;2023-12-14T01:16:47;5.70;;;3.17;;
801;SDS011;383;48.766;9.270;2023-12-14T01:19:14;4.35;;;3.00;;
801;SDS011;383;48.766;9.270;2023-12-14T01:21:41;4.90;;;3.60;;
801;SDS011;383;48.766;9.270;2023-12-14T01:24:07;5.82;;;3.70;;
801;SDS011;383;48.766;9.270;2023-12-14T01:26:35;3.13;;;2.50;;
801;SDS011;383;48.766;9.270;2023-12-14T01:29:02;5.95;;;3.53;;
801;SDS011;383;48.766;9.270;2023-12-14T01:31:29;5.35;;;3.05;;
801;SDS011;383;48.766;9.270;2023-12-14T01:33:55;3.53;;;3.00;;
801;SDS011;383;48.766;9.270;2023-12-14T01:36:22;5.15;;;3.20;;
801;SDS011;383;48.766;9.270;2023-12-14T01:38:50;4.28;;;2.97;;
801;SDS011;383;48.766;9.270;2023-12-14T01:41:18;4.78;;;3.25;;
801;SDS011;383;48.766;9.270;2023-12-14T01:43:48;6.90;;;4.07;;
801;SDS011;383;48.766;9.270;2023-12-14T01:46:15;7.35;;;3.60;;
801;SDS011;383;48.766;9.270;2023-12-14T01:48:41;5.90;;;2.75;;
801;SDS011;383;48.766;9.270;2023-12-14T01:51:08;5.30;;;3.53;;
801;SDS011;383;48.766;9.270;2023-12-14T01:53:35;5.68;;;3.55;;
801;SDS011;383;48.766;9.270;2023-12-14T01:56:02;7.15;;;3.50;;
801;SDS011;383;48.766;9.270;2023-12-14T01:58:29;9.85;;;3.70;;
801;SDS011;383;48.766;9.270;2023-12-14T02:00:58;7.10;;;4.25;;
801;SDS011;383;48.766;9.270;2023-12-14T02:03:31;4.00;;;2.95;;
801;SDS011;383;48.766;9.270;2023-12-14T02:05:58;4.68;;;2.83;;
801;SDS011;383;48.766;9.270;2023-12-14T02:08:25;7.28;;;3.50;;
801;SDS011;383;48.766;9.270;2023-12-14T02:10:53;7.18;;;3.50;;
801;SDS011;383;48.766;9.270;2023-12-14T02:13:20;6.32;;;3.72;;
801;SDS011;383;48.766;9.270;2023-12-14T02:15:47;6.68;;;4.00;;
801;SDS011;383;48.766;9.270;2023-12-14T02:18:15;5.55;;;3.08;;
801;SDS011;383;48.766;9.270;2023-12-14T02:20:41;4.75;;;3.33;;
801;SDS011;383;48.766;9.270;2023-12-14T02:23:09;5.13;;;3.13;;
801;SDS011;383;48.766;9.270;2023-12-14T02:25:36;7.07;;;3.78;;
801;SDS011;383;48.766;9.270;2023-12-14T02:28:03;7.47;;;3.35;;
801;SDS011;383;48.766;9.270;2023-12-14T02:30:29;8.32;;;4.70;;
801;SDS011;383;48.766;9.270;2023-12-14T02:32:56;4.90;;;3.35;;
801;SDS011;383;48.766;9.270;2023-12-14T02:35:23;4.60;;;3.20;;
801;SDS011;383;48.766;9.270;2023-12-14T02:37:49;5.53;;;3.03;;
801;SDS011;383;48.766;9.270;2023-12-14T02:40:17;5.32;;;3.42;;
801;SDS011;383;48.766;9.270;2023-12-14T02:42:44;5.95;;;3.65;;
801;SDS011;383;48.766;9.270;2023-12-14T02:45:11;11.13;;;3.67;;
801;SDS011;383;48.766;9.270;2023-12-14T02:47:37;5.50;;;3.78;;
801;SDS011;383;48.766;9.270;2023-12-14T02:50:05;7.70;;;3.47;;
801;SDS011;383;48.766;9.270;2023-12-14T02:52:31;5.93;;;3.75;;
801;SDS011;383;48.766;9.270;2023-12-14T02:54:58;6.18;;;3.15;;
801;SDS011;383;48.766;9.270;2023-12-14T02:57:26;4.13;;;3.00;;
801;SDS011;383;48.766;9.270;2023-12-14T02:59:52;6.65;;;3.53;;
801;SDS011;383;48.766;9.270;2023-12-14T03:02:19;6.40;;;3.78;;
801;SDS011;383;48.766;9.270;2023-12-14T03:04:46;6.15;;;3.35;;
801;SDS011;383;48.766;9.270;2023-12-14T03:07:12;5.88;;;3.25;;
801;SDS011;383;48.766;9.270;2023-12-14T03:09:39;6.22;;;3.08;;
801;SDS011;383;48.766;9.270;2023-12-14T03:12:09;7.50;;;4.65;;
801;SDS011;383;48.766;9.270;2023-12-14T03:14:37;5.97;;;2.90;;
801;SDS011;383;48.766;9.270;2023-12-14T03:17:05;6.50;;;3.33;;
801;SDS011;383;48.766;9.270;2023-12-14T03:19:37;5.35;;;3.00;;
801;SDS011;383;48.766;9.270;2023-12-14T03:22:04;4.20;;;3.13;;
801;SDS011;383;48.766;9.270;2023-12-14T03:24:31;7.10;;;3.70;;
801;SDS011;383;48.766;9.270;2023-12-14T03:26:57;4.18;;;2.83;;
801;SDS011;383;48.766;9.270;2023-12-14T03:29:24;5.03;;;3.30;;
801;SDS011;383;48.766;9.270;2023-12-14T03:31:52;8.35;;;3.25;;
801;SDS011;383;48.766;9.270;2023-12-14T03:34:18;4.50;;;2.80;;
801;SDS011;383;48.766;9.270;2023-12-14T03:36:45;6.60;;;3.00;;
801;SDS011;383;48.766;9.270;2023-12-14T03:39:12;5.45;;;2.92;;
801;SDS011;383;48.766;9.270;2023-12-14T03:41:38;8.45;;;2.92;;
801;SDS011;383;48.766;9.270;2023-12-14T03:44:05;6.20;;;2.90;;
801;SDS011;383;48.766;9.270;2023-12-14T03:46:32;5.60;;;2.97;;
801;SDS011;383;48.766;9.270;2023-12-14T03:49:00;7.80;;;3.80;;
801;SDS011;383;48.766;9.270;2023-12-14T03:51:27;5.18;;;3.05;;
801;SDS011;383;48.766;9.270;2023-12-14T03:53:54;4.63;;;2.90;;
801;SDS011;383;48.766;9.270;2023-12-14T03:56:20;8.45;;;3.88;;
801;SDS011;383;48.766;9.270;2023-12-14T03:58:47;4.45;;;2.70;;
801;SDS011;383;48.766;9.270;2023-12-14T04:01:17;6.00;;;3.20;;
801;SDS011;383;48.766;9.270;2023-12-14T04:03:44;7.60;;;3.25;;
801;SDS011;383;48.766;9.270;2023-12-14T04:06:12;5.03;;;3.55;;
801;SDS011;383;48.766;9.270;2023-12-14T04:08:40;11.77;;;3.30;;
801;SDS011;383;48.766;9.270;2023-12-14T04:11:06;17.95;;;3.50;;
801;SDS011;383;48.766;9.270;2023-12-14T04:13:34;5.63;;;2.70;;
801;SDS011;383;48.766;9.270;2023-12-14T04:16:01;8.90;;;3.70;;
801;SDS011;383;48.766;9.270;2023-12-14T04:18:28;6.97;;;3.47;;
801;SDS011;383;48.766;9.270;2023-12-14T04:20:55;6.30;;;3.75;;
801;SDS011;383;48.766;9.270;2023-12-14T04:23:23;4.95;;;3.00;;
801;SDS011;383;48.766;9.270;2023-12-14T04:25:52;3.55;;;2.92;;
801;SDS011;383;48.766;9.270;2023-12-14T04:28:18;10.45;;;3.67;;
801;SDS011;383;48.766;9.270;2023-12-14T04:30:45;4.28;;;3.17;;
801;SDS011;383;48.766;9.270;2023-12-14T04:33:11;5.65;;;3.20;;
801;SDS011;383;48.766;9.270;2023-12-14T04:35:38;5.60;;;3.20;;
801;SDS011;383;48.766;9.270;2023-12-14T04:38:05;4.88;;;3.33;;
801;SDS011;383;48.766;9.270;2023-12-14T04:40:33;7.45;;;4.10;;
801;SDS011;383;48.766;9.270;2023-12-14T04:42:59;5.32;;;3.60;;
801;SDS011;383;48.766;9.270;2023-12-14T04:45:26;6.28;;;3.05;;
801;SDS011;383;48.766;9.270;2023-12-14T04:47:53;9.95;;;3.38;;
801;SDS011;383;48.766;9.270;2023-12-14T04:50:19;4.25;;;3.25;;
801;SDS011;383;48.766;9.270;2023-12-14T04:52:46;8.05;;;3.95;;
801;SDS011;383;48.766;9.270;2023-12-14T04:55:13;5.75;;;3.30;;
801;SDS011;383;48.766;9.270;2023-12-14T04:57:41;7.10;;;3.60;;
801;SDS011;383;48.766;9.270;2023-12-14T05:00:08;7.90;;;3.90;;
801;SDS011;383;48.766;9.270;2023-12-14T05:02:35;11.00;;;3.17;;
801;SDS011;383;48.766;9.270;2023-12-14T05:05:02;8.38;;;3.70;;
801;SDS011;383;48.766;9.270;2023-12-14T05:07:29;5.20;;;3.05;;
801;SDS011;383;48.766;9.270;2023-12-14T05:09:56;7.57;;;3.80;;
801;SDS011;383;48.766;9.270;2023-12-14T05:12:23;7.43;;;3.53;;
801;SDS011;383;48.766;9.270;2023-12-14T05:14:51;4.18;;;2.95;;
801;SDS011;383;48.766;9.270;2023-12-14T05:17:18;8.82;;;3.67;;
801;SDS011;383;48.766;9.270;2023-12-14T05:19:45;12.65;;;3.58;;
801;SDS011;383;48.766;9.270;2023-12-14T05:22:12;7.95;;;4.43;;
801;SDS011;383;48.766;9.270;2023-12-14T05:24:38;3.72;;;3.10;;
801;SDS011;383;48.766;9.270;2023-12-14T05:27:05;13.00;;;4.22;;
801;SDS011;383;48.766;9.270;2023-12-14T05:29:31;7.13;;;3.70;;
801;SDS011;383;48.766;9.270;2023-12-14T05:32:00;11.85;;;4.70;;
801;SDS011;383;48.766;9.270;2023-12-14T05:34:27;6.35;;;3.80;;
801;SDS011;383;48.766;9.270;2023-12-14T05:36:54;4.75;;;3.55;;
801;SDS011;383;48.766;9.270;2023-12-14T05:39:20;9.30;;;4.10;;
801;SDS011;383;48.766;9.270;2023-12-14T05:41:47;10.00;;;4.25;;
801;SDS011;383;48.766;9.270;2023-12-14T05:44:14;7.25;;;4.25;;
801;SDS011;383;48.766;9.270;2023-12-14T05:46:41;9.60;;;4.68;;
801;SDS011;383;48.766;9.270;2023-12-14T05:49:09;9.88;;;3.80;;
801;SDS011;383;48.766;9.270;2023-12-14T05:51:36;10.70;;;4.60;;
801;SDS011;383;48.766;9.270;2023-12-14T05:54:02;7.60;;;4.88;;
801;SDS011;383;48.766;9.270;2023-12-14T05:56:29;9.02;;;4.07;;
801;SDS011;383;48.766;9.270;2023-12-14T05:58:56;7.38;;;3.58;;
801;SDS011;383;48.766;9.270;2023-12-14T06:01:23;8.30;;;4.57;;
801;SDS011;383;48.766;9.270;2023-12-14T06:03:50;8.25;;;4.47;;
801;SDS011;383;48.766;9.270;2023-12-14T06:06:18;6.47;;;4.72;;
801;SDS011;383;48.766;9.270;2023-12-14T06:08:44;7.63;;;4.07;;
801;SDS011;383;48.766;9.270;2023-12-14T06:11:11;6.55;;;4.30;;
801;SDS011;383;48.766;9.270;2023-12-14T06:13:38;7.28;;;4.30;;
801;SDS011;383;48.766;9.270;2023-12-14T06:16:05;6.10;;;4.55;;
801;SDS011;383;48.766;9.270;2023-12-14T06:18:37;12.60;;;5.30;;
801;SDS011;383;48.766;9.270;2023-12-14T06:21:06;6.70;;;4.60;;
801;SDS011;383;48.766;9.270;2023-12-14T06:23:34;11.68;;;5.32;;
801;SDS011;383;48.766;9.270;2023-12-14T06:26:02;11.57;;;5.45;;
801;SDS011;383;48.766;9.270;2023-12-14T06:28:29;12.88;;;6.10;;
801;SDS011;383;48.766;9.270;2023-12-14T06:30:56;11.55;;;5.43;;
801;SDS011;383;48.766;9.270;2023-12-14T06:33:22;8.25;;;5.25;;
801;SDS011;383;48.766;9.270;2023-12-14T06:35:49;11.90;;;6.32;;
801;SDS011;383;48.766;9.270;2023-12-14T06:38:16;10.38;;;5.03;;
801;SDS011;383;48.766;9.270;2023-12-14T06:40:44;10.93;;;5.65;;
801;SDS011;383;48.766;9.270;2023-12-14T06:43:11;12.95;;;5.45;;
801;SDS011;383;48.766;9.270;2023-12-14T06:45:37;9.18;;;5.32;;
801;SDS011;383;48.766;9.270;2023-12-14T06:48:04;10.63;;;5.00;;
801;SDS011;383;48.766;9.270;2023-12-14T06:50:31;14.10;;;5.50;;
801;SDS011;383;48.766;9.270;2023-12-14T06:52:58;7.97;;;4.43;;
801;SDS011;383;48.766;9.270;2023-12-14T06:55:24;9.85;;;4.60;;
801;SDS011;383;48.766;9.270;2023-12-14T06:57:52;11.45;;;5.50;;
801;SDS011;383;48.766;9.270;2023-12-14T07:00:19;8.05;;;4.65;;
801;SDS011;383;48.766;9.270;2023-12-14T07:02:46;8.80;;;4.28;;
801;SDS011;383;48.766;9.270;2023-12-14T07:05:13;7.53;;;4.15;;
801;SDS011;383;48.766;9.270;2023-12-14T07:07:40;9.85;;;5.55;;
801;SDS011;383;48.766;9.270;2023-12-14T07:10:07;12.45;;;4.70;;
801;SDS011;383;48.766;9.270;2023-12-14T07:12:34;8.15;;;3.85;;
801;SDS011;383;48.766;9.270;2023-12-14T07:15:02;9.18;;;4.53;;
801;SDS011;383;48.766;9.270;2023-12-14T07:17:30;15.75;;;5.30;;
801;SDS011;383;48.766;9.270;2023-12-14T07:19:57;8.85;;;4.85;;
801;SDS011;383;48.766;9.270;2023-12-14T07:22:23;11.60;;;5.05;;
801;SDS011;383;48.766;9.270;2023-12-14T07:24:50;9.38;;;4.82;;
801;SDS011;383;48.766;9.270;2023-12-14T07:27:17;9.38;;;3.72;;
801;SDS011;383;48.766;9.270;2023-12-14T07:29:43;8.80;;;5.03;;
801;SDS011;383;48.766;9.270;2023-12-14T07:32:12;12.90;;;4.88;;
801;SDS011;383;48.766;9.270;2023-12-14T07:34:39;6.82;;;4.25;;
801;SDS011;383;48.766;9.270;2023-12-14T07:37:06;9.65;;;5.05;;
801;SDS011;383;48.766;9.270;2023-12-14T07:39:32;10.23;;;4.95;;
801;SDS011;383;48.766;9.270;2023-12-14T07:41:59;11.77;;;5.30;;
801;SDS011;383;48.766;9.270;2023-12-14T07:44:26;11.75;;;5.80;;
801;SDS011;383;48.766;9.270;2023-12-14T07:46:55;8.85;;;4.72;;
801;SDS011;383;48.766;9.270;2023-12-14T07:49:23;10.45;;;5.78;;
801;SDS011;383;48.766;9.270;2023-12-14T07:51:49;10.40;;;6.15;;
801;SDS011;383;48.766;9.270;2023-12-14T07:54:16;8.35;;;5.63;;
801;SDS011;383;48.766;9.270;2023-12-14T07:56:43;11.30;;;6.00;;
801;SDS011;383;48.766;9.270;2023-12-14T07:59:10;11.95;;;6.40;;
801;SDS011;383;48.766;9.270;2023-12-14T08:01:37;9.05;;;5.43;;
801;SDS011;383;48.766;9.270;2023-12-14T08:04:04;12.23;;;5.85;;
801;SDS011;383;48.766;9.270;2023-12-14T08:06:32;10.82;;;6.40;;
801;SDS011;383;48.766;9.270;2023-12-14T08:08:58;10.90;;;6.32;;
801;SDS011;383;48.766;9.270;2023-12-14T08:11:25;12.90;;;6.75;;
801;SDS011;383;48.766;9.270;2023-12-14T08:13:53;16.88;;;7.25;;
801;SDS011;383;48.766;9.270;2023-12-14T08:16:19;21.05;;;7.53;;
801;SDS011;383;48.766;9.270;2023-12-14T08:18:46;16.70;;;8.35;;
801;SDS011;383;48.766;9.270;2023-12-14T08:21:13;12.27;;;7.22;;
801;SDS011;383;48.766;9.270;2023-12-14T08:23:41;20.60;;;9.60;;
801;SDS011;383;48.766;9.270;2023-12-14T08:26:08;24.90;;;8.35;;
801;SDS011;383;48.766;9.270;2023-12-14T08:28:36;18.67;;;9.05;;
801;SDS011;383;48.766;9.270;2023-12-14T08:31:03;15.52;;;8.70;;
801;SDS011;383;48.766;9.270;2023-12-14T08:33:30;12.52;;;7.35;;
801;SDS011;383;48.766;9.270;2023-12-14T08:35:57;12.68;;;7.32;;
801;SDS011;383;48.766;9.270;2023-12-14T08:38:23;18.08;;;9.18;;
801;SDS011;383;48.766;9.270;2023-12-14T08:40:52;21.40;;;8.73;;
801;SDS011;383;48.766;9.270;2023-12-14T08:43:18;14.23;;;7.45;;
801;SDS011;383;48.766;9.270;2023-12-14T08:45:45;18.08;;;7.72;;
801;SDS011;383;48.766;9.270;2023-12-14T08:48:13;18.45;;;8.20;;
801;SDS011;383;48.766;9.270;2023-12-14T08:50:40;33.15;;;12.98;;
801;SDS011;383;48.766;9.270;2023-12-14T08:53:06;14.88;;;8.20;;
801;SDS011;383;48.766;9.270;2023-12-14T08:55:34;14.90;;;7.45;;
801;SDS011;383;48.766;9.270;2023-12-14T08:58:02;16.63;;;7.40;;
801;SDS011;383;48.766;9.270;2023-12-14T09:00:28;14.18;;;7.38;;
801;SDS011;383;48.766;9.270;2023-12-14T09:02:55;11.65;;;6.40;;
801;SDS011;383;48.766;9.270;2023-12-14T09:05:22;17.80;;;7.43;;
801;SDS011;383;48.766;9.270;2023-12-14T09:07:48;15.75;;;7.30;;
801;SDS011;383;48.766;9.270;2023-12-14T09:10:17;15.98;;;8.98;;
801;SDS011;383;48.766;9.270;2023-12-14T09:12:44;13.02;;;6.75;;
801;SDS011;383;48.766;9.270;2023-12-14T09:15:12;10.80;;;5.88;;
801;SDS011;383;48.766;9.270;2023-12-14T09:17:40;14.80;;;6.93;;
801;SDS011;383;48.766;9.270;2023-12-14T09:20:08;13.38;;;7.18;;
801;SDS011;383;48.766;9.270;2023-12-14T09:22:36;11.40;;;5.97;;
801;SDS011;383;48.766;9.270;2023-12-14T09:25:03;13.95;;;6.30;;
801;SDS011;383;48.766;9.270;2023-12-14T09:27:30;20.23;;;7.13;;
801;SDS011;383;48.766;9.270;2023-12-14T09:29:57;15.30;;;7.90;;
801;SDS011;383;48.766;9.270;2023-12-14T09:32:25;11.93;;;6.50;;
801;SDS011;383;48.766;9.270;2023-12-14T09:34:52;14.20;;;7.75;;
801;SDS011;383;48.766;9.270;2023-12-14T09:37:21;12.25;;;7.32;;
801;SDS011;383;48.766;9.270;2023-12-14T09:39:48;19.63;;;7.70;;
801;SDS011;383;48.766;9.270;2023-12-14T09:42:16;18.65;;;7.88;;
801;SDS011;383;48.766;9.270;2023-12-14T09:44:45;14.32;;;7.50;;
801;SDS011;383;48.766;9.270;2023-12-14T09:47:13;18.13;;;7.68;;
801;SDS011;383;48.766;9.270;2023-12-14T09:49:41;11.48;;;6.05;;
801;SDS011;383;48.766;9.270;2023-12-14T09:52:09;9.75;;;6.10;;
801;SDS011;383;48.766;9.270;2023-12-14T09:54:36;16.40;;;7.75;;
801;SDS011;383;48.766;9.270;2023-12-14T09:57:03;13.15;;;6.20;;
801;SDS011;383;48.766;9.270;2023-12-14T09:59:30;11.50;;;6.20;;
801;SDS011;383;48.766;9.270;2023-12-14T10:02:08;13.95;;;6.90;;
801;SDS011;383;48.766;9.270;2023-12-14T10:04:36;13.98;;;6.05;;
801;SDS011;383;48.766;9.270;2023-12-14T10:07:04;12.38;;;5.65;;
801;SDS011;383;48.766;9.270;2023-12-14T10:09:32;15.02;;;6.65;;
801;SDS011;383;48.766;9.270;2023-12-14T10:12:01;14.75;;;6.68;;
801;SDS011;383;48.766;9.270;2023-12-14T10:14:30;15.35;;;5.97;;
801;SDS011;383;48.766;9.270;2023-12-14T10:16:57;12.43;;;6.75;;
801;SDS011;383;48.766;9.270;2023-12-14T10:19:24;17.27;;;6.85;;
801;SDS011;383;48.766;9.270;2023-12-14T10:21:51;11.23;;;5.82;;
801;SDS011;383;48.766;9.270;2023-12-14T10:24:19;20.00;;;8.23;;
801;SDS011;383;48.766;9.270;2023-12-14T10:26:46;14.85;;;6.70;;
801;SDS011;383;48.766;9.270;2023-12-14T10:29:13;13.80;;;5.72;;
801;SDS011;383;48.766;9.270;2023-12-14T10:31:40;17.63;;;7.95;;
801;SDS011;383;48.766;9.270;2023-12-14T10:34:09;16.70;;;7.40;;
801;SDS011;383;48.766;9.270;2023-12-14T10:36:37;16.43;;;5.23;;
801;SDS011;383;48.766;9.270;2023-12-14T10:39:04;10.10;;;4.83;;
801;SDS011;383;48.766;9.270;2023-12-14T10:41:34;13.23;;;4.90;;
801;SDS011;383;48.766;9.270;2023-12-14T10:44:02;16.30;;;5.93;;
801;SDS011;383;48.766;9.270;2023-12-14T10:46:30;13.67;;;5.67;;
801;SDS011;383;48.766;9.270;2023-12-14T10:48:57;12.33;;;5.77;;
801;SDS011;383;48.766;9.270;2023-12-14T10:51:26;18.53;;;6.30;;
801;SDS011;383;48.766;9.270;2023-12-14T10:53:54;16.20;;;7.07;;
801;SDS011;383;48.766;9.270;2023-12-14T10:56:22;9.17;;;5.00;;
801;SDS011;383;48.766;9.270;2023-12-14T10:58:52;10.63;;;5.10;;
801;SDS011;383;48.766;9.270;2023-12-14T11:01:21;9.70;;;5.87;;
801;SDS011;383;48.766;9.270;2023-12-14T11:03:49;13.57;;;6.10;;
801;SDS011;383;48.766;9.270;2023-12-14T11:06:20;9.40;;;4.17;;
801;SDS011;383;48.766;9.270;2023-12-14T11:08:54;8.63;;;5.70;;
801;SDS011;383;48.766;9.270;2023-12-14T11:11:25;13.10;;;6.33;;
801;SDS011;383;48.766;9.270;2023-12-14T11:13:55;17.33;;;6.60;;
801;SDS011;383;48.766;9.270;2023-12-14T11:16:22;18.27;;;8.63;;
801;SDS011;383;48.766;9.270;2023-12-14T11:21:59;12.70;;;6.95;;
801;SDS011;383;48.766;9.270;2023-12-14T11:24:46;15.63;;;7.10;;
801;SDS011;383;48.766;9.270;2023-12-14T11:27:17;16.10;;;6.73;;
801;SDS011;383;48.766;9.270;2023-12-14T11:29:52;10.27;;;5.30;;
801;SDS011;383;48.766;9.270;2023-12-14T11:32:19;10.27;;;5.25;;
801;SDS011;383;48.766;9.270;2023-12-14T11:34:45;13.27;;;5.50;;
801;SDS011;383;48.766;9.270;2023-12-14T11:37:13;11.57;;;4.90;;
801;SDS011;383;48.766;9.270;2023-12-14T11:39:40;19.58;;;5.60;;
801;SDS011;383;48.766;9.270;2023-12-14T11:42:08;18.52;;;6.13;;
801;SDS011;383;48.766;9.270;2023-12-14T11:44:36;23.17;;;8.20;;
801;SDS011;383;48.766;9.270;2023-12-14T11:47:04;13.73;;;5.50;;
801;SDS011;383;48.766;9.270;2023-12-14T11:49:31;8.40;;;4.68;;
801;SDS011;383;48.766;9.270;2023-12-14T11:52:01;16.95;;;5.82;;
801;SDS011;383;48.766;9.270;2023-12-14T11:54:29;10.23;;;4.65;;
801;SDS011;383;48.766;9.270;2023-12-14T11:56:56;7.82;;;4.07;;
801;SDS011;383;48.766;9.270;2023-12-14T11:59:22;7.07;;;4.40;;
801;SDS011;383;48.766;9.270;2023-12-14T12:01:56;8.88;;;5.05;;
801;SDS011;383;48.766;9.270;2023-12-14T12:04:25;6.80;;;3.33;;
801;SDS011;383;48.766;9.270;2023-12-14T12:06:59;8.95;;;4.00;;
801;SDS011;383;48.766;9.270;2023-12-14T12:09:34;14.60;;;4.57;;
801;SDS011;383;48.766;9.270;2023-12-14T12:12:04;8.15;;;4.15;;
801;SDS011;383;48.766;9.270;2023-12-14T12:14:32;8.95;;;4.85;;
801;SDS011;383;48.766;9.270;2023-12-14T12:16:58;9.17;;;4.17;;
801;SDS011;383;48.766;9.270;2023-12-14T12:19:26;10.75;;;4.68;;
801;SDS011;383;48.766;9.270;2023-12-14T12:21:53;9.13;;;4.47;;
801;SDS011;383;48.766;9.270;2023-12-14T12:24:20;8.65;;;3.28;;
801;SDS011;383;48.766;9.270;2023-12-14T12:26:47;9.77;;;4.18;;
801;SDS011;383;48.766;9.270;2023-12-14T12:29:13;8.38;;;3.78;;
801;SDS011;383;48.766;9.270;2023-12-14T12:31:40;5.93;;;2.25;;
801;SDS011;383;48.766;9.270;2023-12-14T12:34:07;4.43;;;3.60;;
801;SDS011;383;48.766;9.270;2023-12-14T12:36:35;4.03;;;2.47;;
801;SDS011;383;48.766;9.270;2023-12-14T12:39:02;4.03;;;2.92;;
801;SDS011;383;48.766;9.270;2023-12-14T12:41:31;3.75;;;2.22;;
801;SDS011;383;48.766;9.270;2023-12-14T12:43:57;6.65;;;2.83;;
801;SDS011;383;48.766;9.270;2023-12-14T12:46:30;6.45;;;2.40;;
801;SDS011;383;48.766;9.270;2023-12-14T12:48:57;5.15;;;2.40;;
801;SDS011;383;48.766;9.270;2023-12-14T12:51:24;7.45;;;2.75;;
801;SDS011;383;48.766;9.270;2023-12-14T12:53:53;4.10;;;2.00;;
801;SDS011;383;48.766;9.270;2023-12-14T12:56:20;3.55;;;2.30;;
801;SDS011;383;48.766;9.270;2023-12-14T12:58:46;4.50;;;2.45;;
801;SDS011;383;48.766;9.270;2023-12-14T13:01:14;6.05;;;2.83;;
801;SDS011;383;48.766;9.270;2023-12-14T13:03:41;4.28;;;2.58;;
801;SDS011;383;48.766;9.270;2023-12-14T13:06:08;5.28;;;2.25;;
801;SDS011;383;48.766;9.270;2023-12-14T13:08:35;7.35;;;3.53;;
801;SDS011;383;48.766;9.270;2023-12-14T13:11:03;6.18;;;2.50;;
801;SDS011;383;48.766;9.270;2023-12-14T13:13:30;3.63;;;2.40;;
801;SDS011;383;48.766;9.270;2023-12-14T13:15:57;7.38;;;2.45;;
801;SDS011;383;48.766;9.270;2023-12-14T13:18:23;7.20;;;2.40;;
801;SDS011;383;48.766;9.270;2023-12-14T13:20:50;11.30;;;4.60;;
801;SDS011;383;48.766;9.270;2023-12-14T13:23:17;5.18;;;2.60;;
801;SDS011;383;48.766;9.270;2023-12-14T13:25:44;5.10;;;2.50;;
801;SDS011;383;48.766;9.270;2023-12-14T13:28:12;3.08;;;1.73;;
801;SDS011;383;48.766;9.270;2023-12-14T13:30:39;3.75;;;2.20;;
801;SDS011;383;48.766;9.270;2023-12-14T13:33:06;4.45;;;1.98;;
801;SDS011;383;48.766;9.270;2023-12-14T13:35:34;2.70;;;2.15;;
801;SDS011;383;48.766;9.270;2023-12-14T13:38:01;2.83;;;2.10;;
801;SDS011;383;48.766;9.270;2023-12-14T13:40:28;2.90;;;1.60;;
801;SDS011;383;48.766;9.270;2023-12-14T13:42:55;3.97;;;2.67;;
801;SDS011;383;48.766;9.270;2023-12-14T13:45:25;4.13;;;2.58;;
801;SDS011;383;48.766;9.270;2023-12-14T13:47:54;5.85;;;3.22;;
801;SDS011;383;48.766;9.270;2023-12-14T13:50:21;9.35;;;4.93;;
801;SDS011;383;48.766;9.270;2023-12-14T13:52:48;5.63;;;3.13;;
801;SDS011;383;48.766;9.270;2023-12-14T13:55:15;8.15;;;2.50;;
801;SDS011;383;48.766;9.270;2023-12-14T13:57:42;4.30;;;2.35;;
801;SDS011;383;48.766;9.270;2023-12-14T14:00:09;2.83;;;2.10;;
801;SDS011;383;48.766;9.270;2023-12-14T14:02:38;4.70;;;2.15;;
801;SDS011;383;48.766;9.270;2023-12-14T14:05:05;33.13;;;10.18;;
801;SDS011;383;48.766;9.270;2023-12-14T14:07:32;85.15;;;20.08;;
801;SDS011;383;48.766;9.270;2023-12-14T14:09:59;14.98;;;5.38;;
801;SDS011;383;48.766;9.270;2023-12-14T14:12:25;13.07;;;2.78;;
801;SDS011;383;48.766;9.270;2023-12-14T14:14:52;13.88;;;4.22;;
801;SDS011;383;48.766;9.270;2023-12-14T14:17:19;6.80;;;2.97;;
801;SDS011;383;48.766;9.270;2023-12-14T14:19:47;5.10;;;2.83;;
801;SDS011;383;48.766;9.270;2023-12-14T14:22:13;5.50;;;3.03;;
801;SDS011;383;48.766;9.270;2023-12-14T14:24:40;8.27;;;3.60;;
801;SDS011;383;48.766;9.270;2023-12-14T14:27:07;8.63;;;3.70;;
801;SDS011;383;48.766;9.270;2023-12-14T14:29:34;8.15;;;3.80;;
801;SDS011;383;48.766;9.270;2023-12-14T14:32:01;3.72;;;2.85;;
801;SDS011;383;48.766;9.270;2023-12-14T14:34:27;12.25;;;2.97;;
801;SDS011;383;48.766;9.270;2023-12-14T14:36:56;10.25;;;4.20;;
801;SDS011;383;48.766;9.270;2023-12-14T14:39:23;12.68;;;3.60;;
801;SDS011;383;48.766;9.270;2023-12-14T14:41:49;5.50;;;3.20;;
801;SDS011;383;48.766;9.270;2023-12-14T14:44:16;7.50;;;3.53;;
801;SDS011;383;48.766;9.270;2023-12-14T14:46:43;8.80;;;4.45;;
801;SDS011;383;48.766;9.270;2023-12-14T14:49:10;9.27;;;4.60;;
801;SDS011;383;48.766;9.270;2023-12-14T14:51:36;8.63;;;4.25;;
801;SDS011;383;48.766;9.270;2023-12-14T14:54:04;8.93;;;4.57;;
801;SDS011;383;48.766;9.270;2023-12-14T14:56:31;9.50;;;4.30;;
801;SDS011;383;48.766;9.270;2023-12-14T14:58:58;11.18;;;5.13;;
801;SDS011;383;48.766;9.270;2023-12-14T15:01:24;11.50;;;5.80;;
801;SDS011;383;48.766;9.270;2023-12-14T15:03:51;12.90;;;5.80;;
801;SDS011;383;48.766;9.270;2023-12-14T15:06:18;10.85;;;4.90;;
801;SDS011;383;48.766;9.270;2023-12-14T15:08:44;14.68;;;6.43;;
801;SDS011;383;48.766;9.270;2023-12-14T15:11:12;9.50;;;5.68;;
801;SDS011;383;48.766;9.270;2023-12-14T15:13:39;17.65;;;7.45;;
801;SDS011;383;48.766;9.270;2023-12-14T15:16:06;12.95;;;5.90;;
801;SDS011;383;48.766;9.270;2023-12-14T15:18:33;17.80;;;6.70;;
801;SDS011;383;48.766;9.270;2023-12-14T15:21:06;16.88;;;6.43;;
801;SDS011;383;48.766;9.270;2023-12-14T15:23:32;18.75;;;7.60;;
801;SDS011;383;48.766;9.270;2023-12-14T15:25:59;16.90;;;7.03;;
801;SDS011;383;48.766;9.270;2023-12-14T15:28:28;17.25;;;7.57;;
801;SDS011;383;48.766;9.270;2023-12-14T15:30:54;26.55;;;8.25;;
801;SDS011;383;48.766;9.270;2023-12-14T15:33:21;18.85;;;7.82;;
801;SDS011;383;48.766;9.270;2023-12-14T15:35:48;12.90;;;7.32;;
801;SDS011;383;48.766;9.270;2023-12-14T15:38:14;18.30;;;7.40;;
801;SDS011;383;48.766;9.270;2023-12-14T15:40:41;18.92;;;8.00;;
801;SDS011;383;48.766;9.270;2023-12-14T15:43:08;15.77;;;7.80;;